Terminal Aerodrome Forecast
Issued by NWS

Home | Current Version | Previous Version | Text Only | Print | Product List | Glossary On
Versions: 1 2 3 4 5 6 7 8 9 10 11 12 13 14 15 16 17 18
000
FTUS46 KMFR 271734
TAFRBG
TAF
KRBG 271734Z 2718/2818 36003KT P6SM SKC
     FM272200 35009KT P6SM SKC
     FM280400 VRB03KT P6SM SKC
     FM281200 VRB02KT P6SM SCT015=

USA.gov is the U.S. government's official web portal to all federal, state and local government web resources and services.